Time;durP1;ratioP1;P1;durP2;ratioP2;P2;SDS_P1;SDS_P2;PMS_P1;PMS_P2;Temp;Humidity;BMP_temperature;BMP_pressure;BME280_temperature;BME280_humidity;BME280_pressure;Samples;Min_cycle;Max_cycle;Signal;HPM_P1;HPM_P2
2024/05/04 00:01:08;;;;;;;;;;;;;;;;;;5304706;27;19946;-76
2024/05/04 00:03:36;;;;;;;;;;;;;;;;;;5309195;26;19936;-77
2024/05/04 00:06:05;;;;;;;;;;;;;;;;;;5305334;26;19937;-77
2024/05/04 00:08:34;;;;;;;;;;;;;;;;;;5301832;26;19931;-78
2024/05/04 00:11:02;;;;;;;;;;;;;;;;;;5307103;27;19938;-77
2024/05/04 00:13:31;;;;;;;;;;;;;;;;;;5306641;27;20000;-79
2024/05/04 00:16:00;;;;;;;;;;;;;;;;;;5305815;27;19949;-77
2024/05/04 00:18:29;;;;;;;;;;;;;;;;;;5307070;27;19934;-78
2024/05/04 00:20:58;;;;;;;;;;;;;;;;;;5305821;26;19931;-79
2024/05/04 00:23:26;;;;;;;;;;;;;;;;;;5305352;27;19961;-77
2024/05/04 00:25:55;;;;;;;;;;;;;;;;;;5306391;26;19930;-78
2024/05/04 00:28:24;;;;;;;;;;;;;;;;;;5306085;27;19931;-77
2024/05/04 00:30:52;;;;;;;;;;;;;;;;;;5306203;26;19938;-79
2024/05/04 00:33:21;;;;;;;;;;;;;;;;;;5305918;27;19931;-79
2024/05/04 00:35:50;;;;;;;;;;;;;;;;;;5305035;26;19938;-78
2024/05/04 00:38:18;;;;;;;;;;;;;;;;;;5302183;26;19950;-75
2024/05/04 00:40:47;;;;;;;;;;;;;;;;;;5302374;27;19942;-77
2024/05/04 00:43:16;;;;;;;;;;;;;;;;;;5297618;26;19930;-77
2024/05/04 00:45:45;;;;;;;;;;;;;;;;;;5303057;27;19938;-76
2024/05/04 00:48:14;;;;;;;;;;;;;;;;;;5301705;26;19931;-78
2024/05/04 00:50:42;;;;;;;;;;;;;;;;;;5303821;27;19938;-76
2024/05/04 00:53:11;;;;;;;;;;;;;;;;;;5302979;27;19931;-77
2024/05/04 00:55:40;;;;;;;;;;;;;;;;;;5301404;27;19944;-77
2024/05/04 00:58:08;;;;;;;;;;;;;;;;;;5302384;26;19937;-78
2024/05/04 01:00:37;;;;;;;;;;;;;;;;;;5303249;27;19930;-77
2024/05/04 01:03:06;;;;;;;;;;;;;;;;;;5299938;26;19938;-75
2024/05/04 01:05:34;;;;;;;;;;;;;;;;;;5306611;26;20706;-77
2024/05/04 01:08:03;;;;;;;;;;;;;;;;;;5305642;26;20766;-76
2024/05/04 01:10:32;;;;;;;;;;;;;;;;;;5306498;27;20237;-77
2024/05/04 01:13:01;;;;;;;;;;;;;;;;;;5306160;27;19941;-76
2024/05/04 01:15:29;;;;;;;;;;;;;;;;;;5304847;27;19930;-73
2024/05/04 01:17:58;;;;;;;;;;;;;;;;;;5306076;27;20058;-73
2024/05/04 01:20:27;;;;;;;;;;;;;;;;;;5304810;26;19942;-74
2024/05/04 01:22:55;;;;;;;;;;;;;;;;;;5300874;27;19937;-75
2024/05/04 01:25:24;;;;;;;;;;;;;;;;;;5305826;26;20273;-74
2024/05/04 01:27:53;;;;;;;;;;;;;;;;;;5307482;27;19930;-74
2024/05/04 01:30:22;;;;;;;;;;;;;;;;;;5307273;27;19931;-74
2024/05/04 01:32:51;;;;;;;;;;;;;;;;;;5307280;27;20480;-74
2024/05/04 01:35:20;;;;;;;;;;;;;;;;;;5306515;27;20266;-75
2024/05/04 01:37:49;;;;;;;;;;;;;;;;;;5306375;26;19937;-76
2024/05/04 01:40:18;;;;;;;;;;;;;;;;;;5306741;26;19938;-75
2024/05/04 01:42:46;;;;;;;;;;;;;;;;;;5290833;27;19931;-75
2024/05/04 01:45:15;;;;;;;;;;;;;;;;;;5306982;26;19956;-75
2024/05/04 01:47:44;;;;;;;;;;;;;;;;;;5306343;26;19949;-76
2024/05/04 01:50:13;;;;;;;;;;;;;;;;;;5305160;27;19931;-74
2024/05/04 01:52:42;;;;;;;;;;;;;;;;;;5306085;27;19941;-74
2024/05/04 01:55:11;;;;;;;;;;;;;;;;;;5303378;26;19931;-75
2024/05/04 01:57:39;;;;;;;;;;;;;;;;;;5306256;27;19930;-77
2024/05/04 02:00:11;;;;;;;;;;;;;;;;;;5305419;27;19937;-74
2024/05/04 02:02:40;;;;;;;;;;;;;;;;;;5304635;26;20853;-75
2024/05/04 02:05:09;;;;;;;;;;;;;;;;;;5304891;26;20376;-73
2024/05/04 02:07:37;;;;;;;;;;;;;;;;;;5304182;27;19935;-75
2024/05/04 02:10:06;;;;;;;;;;;;;;;;;;5303301;26;19941;-73
2024/05/04 02:12:35;;;;;;;;;;;;;;;;;;5305213;27;19935;-74
2024/05/04 02:15:03;;;;;;;;;;;;;;;;;;5302207;26;19937;-74
2024/05/04 02:17:32;;;;;;;;;;;;;;;;;;5305002;26;19942;-74
2024/05/04 02:20:01;;;;;;;;;;;;;;;;;;5305659;27;19931;-74
2024/05/04 02:22:32;;;;;;;;;;;;;;;;;;5304760;26;20485;-75
2024/05/04 02:25:01;;;;;;;;;;;;;;;;;;5305016;26;19938;-75
2024/05/04 02:27:29;;;;;;;;;;;;;;;;;;5303664;26;19937;-74
2024/05/04 02:29:58;;;;;;;;;;;;;;;;;;5304779;27;20320;-73
2024/05/04 02:32:27;;;;;;;;;;;;;;;;;;5305234;26;19955;-73
2024/05/04 02:34:56;;;;;;;;;;;;;;;;;;5305194;27;19938;-74
2024/05/04 02:37:25;;;;;;;;;;;;;;;;;;5305217;27;19988;-74
2024/05/04 02:39:53;;;;;;;;;;;;;;;;;;5301843;27;20028;-75
2024/05/04 02:42:22;;;;;;;;;;;;;;;;;;5302657;26;20243;-74
2024/05/04 02:44:51;;;;;;;;;;;;;;;;;;5306806;26;19930;-73
2024/05/04 02:47:20;;;;;;;;;;;;;;;;;;5307686;26;19930;-74
2024/05/04 02:49:48;;;;;;;;;;;;;;;;;;5306109;27;19931;-73
2024/05/04 02:52:17;;;;;;;;;;;;;;;;;;5307159;26;19963;-72
2024/05/04 02:54:46;;;;;;;;;;;;;;;;;;5307463;26;19931;-74
2024/05/04 02:57:14;;;;;;;;;;;;;;;;;;5306751;27;19946;-75
2024/05/04 02:59:43;;;;;;;;;;;;;;;;;;5307146;26;19937;-74
2024/05/04 03:02:13;;;;;;;;;;;;;;;;;;5303072;27;19937;-73
2024/05/04 03:04:42;;;;;;;;;;;;;;;;;;5301209;27;20018;-75
2024/05/04 03:07:11;;;;;;;;;;;;;;;;;;5305152;26;19962;-74
2024/05/04 03:09:40;;;;;;;;;;;;;;;;;;5306225;26;19930;-74
2024/05/04 03:12:08;;;;;;;;;;;;;;;;;;5306315;27;19935;-73
2024/05/04 03:14:37;;;;;;;;;;;;;;;;;;5306435;26;19931;-74
2024/05/04 03:17:06;;;;;;;;;;;;;;;;;;5304423;26;20408;-74
2024/05/04 03:19:34;;;;;;;;;;;;;;;;;;5304931;27;19941;-75
2024/05/04 03:22:03;;;;;;;;;;;;;;;;;;5306082;27;19930;-74
2024/05/04 03:24:32;;;;;;;;;;;;;;;;;;5306081;26;19930;-73
2024/05/04 03:27:01;;;;;;;;;;;;;;;;;;5304367;27;19931;-73
2024/05/04 03:29:29;;;;;;;;;;;;;;;;;;5305840;26;19930;-74
2024/05/04 03:31:58;;;;;;;;;;;;;;;;;;5304972;27;19931;-74
2024/05/04 03:34:27;;;;;;;;;;;;;;;;;;5305147;26;19937;-73
2024/05/04 03:36:55;;;;;;;;;;;;;;;;;;5306721;26;19930;-73
2024/05/04 03:39:24;;;;;;;;;;;;;;;;;;5304149;27;20340;-73
2024/05/04 03:41:53;;;;;;;;;;;;;;;;;;5307356;27;19935;-75
2024/05/04 03:44:22;;;;;;;;;;;;;;;;;;5307130;27;19931;-74
2024/05/04 03:46:50;;;;;;;;;;;;;;;;;;5306022;27;19930;-75
2024/05/04 03:49:19;;;;;;;;;;;;;;;;;;5303908;26;19931;-74
2024/05/04 03:51:48;;;;;;;;;;;;;;;;;;5305655;27;19939;-75
2024/05/04 03:54:16;;;;;;;;;;;;;;;;;;5295208;26;19934;-75
2024/05/04 03:56:45;;;;;;;;;;;;;;;;;;5288147;27;19938;-72
2024/05/04 03:59:14;;;;;;;;;;;;;;;;;;5303405;26;20281;-71
2024/05/04 04:01:42;;;;;;;;;;;;;;;;;;5304825;26;20845;-72
2024/05/04 04:04:11;;;;;;;;;;;;;;;;;;5297820;26;20642;-73
2024/05/04 04:06:40;;;;;;;;;;;;;;;;;;5296353;27;20372;-73
2024/05/04 04:09:09;;;;;;;;;;;;;;;;;;5305477;27;19972;-75
2024/05/04 04:11:37;;;;;;;;;;;;;;;;;;5306108;26;20013;-72
2024/05/04 04:14:06;;;;;;;;;;;;;;;;;;5306303;27;19958;-73
2024/05/04 04:16:35;;;;;;;;;;;;;;;;;;5306493;27;19931;-73
2024/05/04 04:19:03;;;;;;;;;;;;;;;;;;5302413;26;19938;-73
2024/05/04 04:21:32;;;;;;;;;;;;;;;;;;5302369;26;19937;-74
2024/05/04 04:24:01;;;;;;;;;;;;;;;;;;5304483;27;19930;-75
2024/05/04 04:26:30;;;;;;;;;;;;;;;;;;5304743;27;20153;-75
2024/05/04 04:28:58;;;;;;;;;;;;;;;;;;5304923;27;19984;-77
2024/05/04 04:31:27;;;;;;;;;;;;;;;;;;5307034;26;19938;-73
2024/05/04 04:33:56;;;;;;;;;;;;;;;;;;5305849;27;19935;-73
2024/05/04 04:36:24;;;;;;;;;;;;;;;;;;5305583;26;19931;-74
2024/05/04 04:38:53;;;;;;;;;;;;;;;;;;5303888;26;19930;-74
2024/05/04 04:41:22;;;;;;;;;;;;;;;;;;5303780;26;19941;-74
2024/05/04 04:43:51;;;;;;;;;;;;;;;;;;5303745;26;19930;-74
2024/05/04 04:46:20;;;;;;;;;;;;;;;;;;5304118;26;20450;-76
2024/05/04 04:48:49;;;;;;;;;;;;;;;;;;5303525;27;19931;-76
2024/05/04 04:51:17;;;;;;;;;;;;;;;;;;5296697;27;19937;-76
2024/05/04 04:53:46;;;;;;;;;;;;;;;;;;5301266;26;19931;-78
2024/05/04 04:56:15;;;;;;;;;;;;;;;;;;5303151;26;19932;-75
2024/05/04 04:58:43;;;;;;;;;;;;;;;;;;5302689;26;20436;-75
2024/05/04 05:01:12;;;;;;;;;;;;;;;;;;5301831;26;19931;-78
2024/05/04 05:03:41;;;;;;;;;;;;;;;;;;5299033;27;20005;-73
2024/05/04 05:06:09;;;;;;;;;;;;;;;;;;5298055;27;19930;-73
2024/05/04 05:08:38;;;;;;;;;;;;;;;;;;5301697;27;19930;-74
2024/05/04 05:11:07;;;;;;;;;;;;;;;;;;5302172;26;19935;-73
2024/05/04 05:13:36;;;;;;;;;;;;;;;;;;5303134;27;20436;-73
2024/05/04 05:16:04;;;;;;;;;;;;;;;;;;5303524;27;19954;-73
2024/05/04 05:18:33;;;;;;;;;;;;;;;;;;5301311;27;20369;-73
2024/05/04 05:21:02;;;;;;;;;;;;;;;;;;5304399;27;19942;-73
2024/05/04 05:23:30;;;;;;;;;;;;;;;;;;5304339;26;20384;-72
2024/05/04 05:25:59;;;;;;;;;;;;;;;;;;5303819;26;20826;-73
2024/05/04 05:28:28;;;;;;;;;;;;;;;;;;5302597;26;19930;-74
2024/05/04 05:30:57;;;;;;;;;;;;;;;;;;5301320;27;20238;-73
2024/05/04 05:33:25;;;;;;;;;;;;;;;;;;5303860;27;19938;-74
2024/05/04 05:35:54;;;;;;;;;;;;;;;;;;5303754;26;19931;-73
2024/05/04 05:38:23;;;;;;;;;;;;;;;;;;5301320;27;19931;-73
2024/05/04 05:40:51;;;;;;;;;;;;;;;;;;5292935;26;19965;-73
2024/05/04 05:43:20;;;;;;;;;;;;;;;;;;5302853;26;19930;-74
2024/05/04 05:45:49;;;;;;;;;;;;;;;;;;5302891;26;19930;-71
2024/05/04 05:48:17;;;;;;;;;;;;;;;;;;5303914;27;19931;-71
2024/05/04 05:50:46;;;;;;;;;;;;;;;;;;5305922;26;19931;-71
2024/05/04 05:53:15;;;;;;;;;;;;;;;;;;5303724;27;19935;-71
2024/05/04 05:55:44;;;;;;;;;;;;;;;;;;5307015;27;20657;-74
2024/05/04 05:58:12;;;;;;;;;;;;;;;;;;5305325;26;19930;-74
2024/05/04 06:00:41;;;;;;;;;;;;;;;;;;5308130;26;19974;-75
2024/05/04 06:03:10;;;;;;;;;;;;;;;;;;5305955;26;19931;-77
2024/05/04 06:05:38;;;;;;;;;;;;;;;;;;5304803;27;19938;-77
2024/05/04 06:08:07;;;;;;;;;;;;;;;;;;5301823;27;19939;-75
2024/05/04 06:10:36;;;;;;;;;;;;;;;;;;5306119;27;19931;-74
2024/05/04 06:13:05;;;;;;;;;;;;;;;;;;5301787;26;19938;-74
2024/05/04 06:15:33;;;;;;;;;;;;;;;;;;5303659;26;19945;-74
2024/05/04 06:18:02;;;;;;;;;;;;;;;;;;5304964;27;19946;-74
2024/05/04 06:20:31;;;;;;;;;;;;;;;;;;5305884;26;19931;-74
2024/05/04 06:22:59;;;;;;;;;;;;;;;;;;5307531;26;19996;-75
2024/05/04 06:25:28;;;;;;;;;;;;;;;;;;5306263;27;20555;-75
2024/05/04 06:27:57;;;;;;;;;;;;;;;;;;5305245;26;19954;-74
2024/05/04 06:30:25;;;;;;;;;;;;;;;;;;5304315;26;19931;-72
2024/05/04 06:32:54;;;;;;;;;;;;;;;;;;5305552;27;19931;-71
2024/05/04 06:35:23;;;;;;;;;;;;;;;;;;5303373;27;19939;-74
2024/05/04 06:37:52;;;;;;;;;;;;;;;;;;5304186;26;19937;-74
2024/05/04 06:40:20;;;;;;;;;;;;;;;;;;5305652;27;20765;-75
2024/05/04 06:42:49;;;;;;;;;;;;;;;;;;5305903;26;20266;-74
2024/05/04 06:45:18;;;;;;;;;;;;;;;;;;5306506;27;19935;-74
2024/05/04 06:47:46;;;;;;;;;;;;;;;;;;5301410;26;19930;-73
2024/05/04 06:50:15;;;;;;;;;;;;;;;;;;5300225;26;19930;-72
2024/05/04 06:52:44;;;;;;;;;;;;;;;;;;5306071;27;19930;-74
2024/05/04 06:55:12;;;;;;;;;;;;;;;;;;5302961;27;20343;-74
2024/05/04 06:57:41;;;;;;;;;;;;;;;;;;5303965;26;19937;-71
2024/05/04 07:00:10;;;;;;;;;;;;;;;;;;5304852;27;19942;-70
2024/05/04 07:02:39;;;;;;;;;;;;;;;;;;5304532;26;19942;-70
2024/05/04 07:05:07;;;;;;;;;;;;;;;;;;5304542;26;19940;-70
2024/05/04 07:07:36;;;;;;;;;;;;;;;;;;5305978;26;20275;-74
2024/05/04 07:10:05;;;;;;;;;;;;;;;;;;5306952;27;19938;-74
2024/05/04 07:12:33;;;;;;;;;;;;;;;;;;5306215;27;19937;-73
2024/05/04 07:15:02;;;;;;;;;;;;;;;;;;5305286;27;19930;-72
2024/05/04 07:17:31;;;;;;;;;;;;;;;;;;5305062;26;19938;-72
2024/05/04 07:19:59;;;;;;;;;;;;;;;;;;5303621;27;19930;-71
2024/05/04 07:22:28;;;;;;;;;;;;;;;;;;5305926;26;19938;-72
2024/05/04 07:24:57;;;;;;;;;;;;;;;;;;5305441;27;20018;-71
2024/05/04 07:27:25;;;;;;;;;;;;;;;;;;5306776;26;19930;-70
2024/05/04 07:29:54;;;;;;;;;;;;;;;;;;5304845;26;19939;-72
2024/05/04 07:32:23;;;;;;;;;;;;;;;;;;5305614;27;19966;-72
2024/05/04 07:34:52;;;;;;;;;;;;;;;;;;5304653;26;20000;-72
2024/05/04 07:37:20;;;;;;;;;;;;;;;;;;5303232;27;21214;-72
2024/05/04 07:39:50;;;;;;;;;;;;;;;;;;5305001;27;19937;-73
2024/05/04 07:42:19;;;;;;;;;;;;;;;;;;5304375;27;19931;-71
2024/05/04 07:44:48;;;;;;;;;;;;;;;;;;5304376;26;19931;-71
2024/05/04 07:47:17;;;;;;;;;;;;;;;;;;5297878;26;19966;-75
2024/05/04 07:49:45;;;;;;;;;;;;;;;;;;5303603;26;19937;-74
2024/05/04 07:52:14;;;;;;;;;;;;;;;;;;5303696;26;19937;-75
2024/05/04 07:54:43;;;;;;;;;;;;;;;;;;5300199;26;20468;-73
2024/05/04 07:57:12;;;;;;;;;;;;;;;;;;5303014;26;19931;-73
2024/05/04 07:59:40;;;;;;;;;;;;;;;;;;5302664;27;19950;-71
2024/05/04 08:02:09;;;;;;;;;;;;;;;;;;5301336;27;19930;-71
2024/05/04 08:04:38;;;;;;;;;;;;;;;;;;5303357;26;19934;-72
2024/05/04 08:07:08;;;;;;;;;;;;;;;;;;5302908;26;19938;-71
2024/05/04 08:09:37;;;;;;;;;;;;;;;;;;5301612;26;20262;-72
2024/05/04 08:12:06;;;;;;;;;;;;;;;;;;5302888;26;19931;-72
2024/05/04 08:14:34;;;;;;;;;;;;;;;;;;5302843;26;19931;-72
2024/05/04 08:17:03;;;;;;;;;;;;;;;;;;5302025;26;19931;-73
2024/05/04 08:19:31;;;;;;;;;;;;;;;;;;5301994;27;19937;-72
2024/05/04 08:22:00;;;;;;;;;;;;;;;;;;5302344;27;20290;-72
2024/05/04 08:24:30;;;;;;;;;;;;;;;;;;5303621;26;20430;-72
2024/05/04 08:26:59;;;;;;;;;;;;;;;;;;5301112;26;19935;-71
2024/05/04 08:29:28;;;;;;;;;;;;;;;;;;5302232;26;19934;-70
2024/05/04 08:31:56;;;;;;;;;;;;;;;;;;5302285;27;19938;-70
2024/05/04 08:34:25;;;;;;;;;;;;;;;;;;5302718;26;20286;-70
2024/05/04 08:36:54;;;;;;;;;;;;;;;;;;5302547;26;19930;-71
2024/05/04 08:39:22;;;;;;;;;;;;;;;;;;5301882;26;19934;-70
2024/05/04 08:41:51;;;;;;;;;;;;;;;;;;5302714;26;19931;-70
2024/05/04 08:44:20;;;;;;;;;;;;;;;;;;5301138;26;19937;-70
2024/05/04 08:46:49;;;;;;;;;;;;;;;;;;5301907;26;19938;-70
2024/05/04 08:49:17;;;;;;;;;;;;;;;;;;5301852;26;20382;-70
2024/05/04 08:51:47;;;;;;;;;;;;;;;;;;5301782;27;19938;-69
2024/05/04 08:54:16;;;;;;;;;;;;;;;;;;5302052;26;19930;-71
2024/05/04 08:56:45;;;;;;;;;;;;;;;;;;5300498;26;19938;-70
2024/05/04 08:59:13;;;;;;;;;;;;;;;;;;5301738;26;19931;-69
2024/05/04 09:01:42;;;;;;;;;;;;;;;;;;5302525;27;19930;-70
2024/05/04 09:04:11;;;;;;;;;;;;;;;;;;5303444;26;20479;-70
2024/05/04 09:06:39;;;;;;;;;;;;;;;;;;5301627;27;20023;-71
2024/05/04 09:09:08;;;;;;;;;;;;;;;;;;5301485;26;19934;-70
2024/05/04 09:11:37;;;;;;;;;;;;;;;;;;5301660;26;19973;-72
2024/05/04 09:14:06;;;;;;;;;;;;;;;;;;5304884;26;19938;-72
2024/05/04 09:16:35;;;;;;;;;;;;;;;;;;5304207;27;20273;-70
2024/05/04 09:19:04;;;;;;;;;;;;;;;;;;5303783;27;19968;-71
2024/05/04 09:21:33;;;;;;;;;;;;;;;;;;5303584;27;19937;-73
2024/05/04 09:24:02;;;;;;;;;;;;;;;;;;5303225;27;19931;-72
2024/05/04 09:26:30;;;;;;;;;;;;;;;;;;5305729;26;19930;-72
2024/05/04 09:28:59;;;;;;;;;;;;;;;;;;5306879;27;19937;-72
2024/05/04 09:31:28;;;;;;;;;;;;;;;;;;5307045;26;20111;-72
2024/05/04 09:33:57;;;;;;;;;;;;;;;;;;5299953;27;20164;-73
2024/05/04 09:36:26;;;;;;;;;;;;;;;;;;5307572;26;20369;-72
2024/05/04 09:38:54;;;;;;;;;;;;;;;;;;5306480;27;19938;-72
2024/05/04 09:41:23;;;;;;;;;;;;;;;;;;5309933;26;20385;-72
2024/05/04 09:43:52;;;;;;;;;;;;;;;;;;5302147;26;20479;-73
2024/05/04 09:46:21;;;;;;;;;;;;;;;;;;5308717;26;20376;-71
2024/05/04 09:48:49;;;;;;;;;;;;;;;;;;5304158;27;19942;-71
2024/05/04 09:51:18;;;;;;;;;;;;;;;;;;5302709;26;20373;-71
2024/05/04 09:53:47;;;;;;;;;;;;;;;;;;5303831;27;19934;-71
2024/05/04 09:56:16;;;;;;;;;;;;;;;;;;5304645;27;19930;-71
2024/05/04 09:58:44;;;;;;;;;;;;;;;;;;5305035;27;19939;-71
2024/05/04 10:01:13;;;;;;;;;;;;;;;;;;5302118;27;19934;-71
2024/05/04 10:03:42;;;;;;;;;;;;;;;;;;5302716;27;19939;-71
2024/05/04 10:06:11;;;;;;;;;;;;;;;;;;5303554;26;19954;-72
2024/05/04 10:08:40;;;;;;;;;;;;;;;;;;5300031;26;20777;-68
2024/05/04 10:11:08;;;;;;;;;;;;;;;;;;5302897;27;20269;-73
2024/05/04 10:13:38;;;;;;;;;;;;;;;;;;5303494;26;19942;-72
2024/05/04 10:16:07;;;;;;;;;;;;;;;;;;5304332;26;19937;-72
2024/05/04 10:18:36;;;;;;;;;;;;;;;;;;5303226;27;20034;-73
2024/05/04 10:21:05;;;;;;;;;;;;;;;;;;5295557;26;19931;-73
2024/05/04 10:23:33;;;;;;;;;;;;;;;;;;5301491;26;19933;-72
2024/05/04 10:26:02;;;;;;;;;;;;;;;;;;5301739;27;19934;-73
2024/05/04 10:28:31;;;;;;;;;;;;;;;;;;5298775;27;20404;-72
2024/05/04 10:30:59;;;;;;;;;;;;;;;;;;5302143;26;20406;-73
2024/05/04 10:33:28;;;;;;;;;;;;;;;;;;5301008;27;19958;-72
2024/05/04 10:35:57;;;;;;;;;;;;;;;;;;5300668;26;19930;-72
2024/05/04 10:38:26;;;;;;;;;;;;;;;;;;5301043;26;20309;-72
2024/05/04 10:40:54;;;;;;;;;;;;;;;;;;5302338;26;20341;-71
2024/05/04 10:43:23;;;;;;;;;;;;;;;;;;5303106;26;19931;-73
2024/05/04 10:45:52;;;;;;;;;;;;;;;;;;5301334;27;19931;-72
2024/05/04 10:48:20;;;;;;;;;;;;;;;;;;5303250;27;19934;-72
2024/05/04 10:50:49;;;;;;;;;;;;;;;;;;5302437;27;19938;-72
2024/05/04 10:53:19;;;;;;;;;;;;;;;;;;5301209;27;19946;-72
2024/05/04 10:55:48;;;;;;;;;;;;;;;;;;5302883;27;19962;-73
2024/05/04 10:58:17;;;;;;;;;;;;;;;;;;5301731;27;19938;-72
2024/05/04 11:00:46;;;;;;;;;;;;;;;;;;5302642;26;19930;-71
2024/05/04 11:03:14;;;;;;;;;;;;;;;;;;5302812;26;20020;-71
2024/05/04 11:05:43;;;;;;;;;;;;;;;;;;5303436;26;20282;-72
2024/05/04 11:08:12;;;;;;;;;;;;;;;;;;5304444;27;19931;-76
2024/05/04 11:10:41;;;;;;;;;;;;;;;;;;5280649;27;19931;-75
2024/05/04 11:13:09;;;;;;;;;;;;;;;;;;5298467;26;20785;-76
2024/05/04 11:15:38;;;;;;;;;;;;;;;;;;5281635;27;20369;-76
2024/05/04 11:18:07;;;;;;;;;;;;;;;;;;5293945;27;19931;-78
2024/05/04 11:20:36;;;;;;;;;;;;;;;;;;5300250;27;20000;-75
2024/05/04 11:23:05;;;;;;;;;;;;;;;;;;5300042;27;20377;-76
2024/05/04 11:25:33;;;;;;;;;;;;;;;;;;5302903;26;19931;-75
2024/05/04 11:28:02;;;;;;;;;;;;;;;;;;5304096;27;20265;-74
2024/05/04 11:30:34;;;;;;;;;;;;;;;;;;5303411;27;20282;-75
2024/05/04 11:33:02;;;;;;;;;;;;;;;;;;5300842;26;19962;-75
2024/05/04 11:35:31;;;;;;;;;;;;;;;;;;5290832;27;19938;-74
2024/05/04 11:38:00;;;;;;;;;;;;;;;;;;5303992;27;19938;-74
2024/05/04 11:40:28;;;;;;;;;;;;;;;;;;5303172;26;19937;-73
2024/05/04 11:42:57;;;;;;;;;;;;;;;;;;5303480;26;20357;-75
2024/05/04 11:45:30;;;;;;;;;;;;;;;;;;5303290;27;19996;-75
2024/05/04 11:47:59;;;;;;;;;;;;;;;;;;5304541;27;19945;-75
2024/05/04 11:50:30;;;;;;;;;;;;;;;;;;5304159;26;20275;-74
2024/05/04 11:52:59;;;;;;;;;;;;;;;;;;5301580;27;19931;-75
2024/05/04 11:55:28;;;;;;;;;;;;;;;;;;5303154;27;20058;-75
2024/05/04 11:57:59;;;;;;;;;;;;;;;;;;5303159;27;22440;-75
2024/05/04 12:00:28;;;;;;;;;;;;;;;;;;5304213;26;19931;-73
2024/05/04 12:02:57;;;;;;;;;;;;;;;;;;5294663;26;19942;-74
2024/05/04 12:05:25;;;;;;;;;;;;;;;;;;5277552;27;19931;-74
2024/05/04 12:07:54;;;;;;;;;;;;;;;;;;5304422;26;19930;-75
2024/05/04 12:10:23;;;;;;;;;;;;;;;;;;5305519;27;19934;-73
2024/05/04 12:12:51;;;;;;;;;;;;;;;;;;5305398;27;20397;-73
2024/05/04 12:15:20;;;;;;;;;;;;;;;;;;5301582;27;19938;-74
2024/05/04 12:17:49;;;;;;;;;;;;;;;;;;5298989;27;19967;-74
2024/05/04 12:20:18;;;;;;;;;;;;;;;;;;5293100;27;19931;-72
2024/05/04 12:22:46;;;;;;;;;;;;;;;;;;5304751;26;19947;-73
2024/05/04 12:25:15;;;;;;;;;;;;;;;;;;5304425;27;19937;-74
2024/05/04 12:27:44;;;;;;;;;;;;;;;;;;5304252;27;19934;-75
2024/05/04 12:30:13;;;;;;;;;;;;;;;;;;5304019;26;20379;-72
2024/05/04 12:32:42;;;;;;;;;;;;;;;;;;5295038;27;19941;-74
2024/05/04 12:35:11;;;;;;;;;;;;;;;;;;5301535;27;19934;-74
2024/05/04 12:37:39;;;;;;;;;;;;;;;;;;5288711;27;19939;-74
2024/05/04 12:40:08;;;;;;;;;;;;;;;;;;5305380;26;19931;-75
2024/05/04 12:42:38;;;;;;;;;;;;;;;;;;5304366;27;19931;-72
2024/05/04 12:45:07;;;;;;;;;;;;;;;;;;5303083;27;19938;-74
2024/05/04 12:47:37;;;;;;;;;;;;;;;;;;5303460;26;19958;-75
2024/05/04 12:50:06;;;;;;;;;;;;;;;;;;5301345;26;19937;-74
2024/05/04 12:52:35;;;;;;;;;;;;;;;;;;5297157;27;19938;-73
2024/05/04 12:55:04;;;;;;;;;;;;;;;;;;5301852;27;19935;-73
2024/05/04 12:57:32;;;;;;;;;;;;;;;;;;5302063;27;20022;-72
2024/05/04 13:00:01;;;;;;;;;;;;;;;;;;5303808;27;19935;-73
2024/05/04 13:02:30;;;;;;;;;;;;;;;;;;5297158;26;19938;-73
2024/05/04 13:04:59;;;;;;;;;;;;;;;;;;5305553;26;19937;-74
2024/05/04 13:07:28;;;;;;;;;;;;;;;;;;5303361;27;19941;-74
2024/05/04 13:09:57;;;;;;;;;;;;;;;;;;5299880;27;19938;-74
2024/05/04 13:12:25;;;;;;;;;;;;;;;;;;5299729;26;19930;-74
2024/05/04 13:14:54;;;;;;;;;;;;;;;;;;5305091;26;19937;-75
2024/05/04 13:17:23;;;;;;;;;;;;;;;;;;5302953;27;19941;-73
2024/05/04 13:19:51;;;;;;;;;;;;;;;;;;5304220;27;19950;-74
2024/05/04 13:22:20;;;;;;;;;;;;;;;;;;5306004;27;19931;-75
2024/05/04 13:24:49;;;;;;;;;;;;;;;;;;5305675;27;19930;-74
2024/05/04 13:27:20;;;;;;;;;;;;;;;;;;5301499;26;19935;-73
2024/05/04 13:29:49;;;;;;;;;;;;;;;;;;5304085;27;19934;-74
2024/05/04 13:32:18;;;;;;;;;;;;;;;;;;5304063;27;19946;-69
2024/05/04 13:34:46;;;;;;;;;;;;;;;;;;5304990;26;19942;-73
2024/05/04 13:37:15;;;;;;;;;;;;;;;;;;5306334;26;19930;-74
2024/05/04 13:39:44;;;;;;;;;;;;;;;;;;5305772;27;19931;-74
2024/05/04 13:42:13;;;;;;;;;;;;;;;;;;5305256;26;19934;-73
2024/05/04 13:44:42;;;;;;;;;;;;;;;;;;5294030;26;20018;-73
2024/05/04 13:47:10;;;;;;;;;;;;;;;;;;5305818;26;20050;-73
2024/05/04 13:49:39;;;;;;;;;;;;;;;;;;5301371;26;19937;-73
2024/05/04 13:52:08;;;;;;;;;;;;;;;;;;5302889;27;19930;-74
2024/05/04 13:54:39;;;;;;;;;;;;;;;;;;5303747;26;19935;-74
2024/05/04 13:57:07;;;;;;;;;;;;;;;;;;5303890;26;19938;-72
2024/05/04 13:59:36;;;;;;;;;;;;;;;;;;5300220;26;19939;-73
2024/05/04 14:02:05;;;;;;;;;;;;;;;;;;5295663;26;19942;-75
2024/05/04 14:04:33;;;;;;;;;;;;;;;;;;5303718;26;19990;-74
2024/05/04 14:07:02;;;;;;;;;;;;;;;;;;5303270;26;19945;-73
2024/05/04 14:09:31;;;;;;;;;;;;;;;;;;5303305;26;19930;-74
2024/05/04 14:12:00;;;;;;;;;;;;;;;;;;5303032;26;19937;-73
2024/05/04 14:14:28;;;;;;;;;;;;;;;;;;5302347;26;19942;-73
2024/05/04 14:16:57;;;;;;;;;;;;;;;;;;5302250;26;19930;-73
2024/05/04 14:19:26;;;;;;;;;;;;;;;;;;5302515;26;19967;-73
2024/05/04 14:21:55;;;;;;;;;;;;;;;;;;5305206;26;19937;-73
2024/05/04 14:24:27;;;;;;;;;;;;;;;;;;5301309;27;19931;-73
2024/05/04 14:26:56;;;;;;;;;;;;;;;;;;5304112;27;19930;-73
2024/05/04 14:29:24;;;;;;;;;;;;;;;;;;5303234;27;20333;-73
2024/05/04 14:31:53;;;;;;;;;;;;;;;;;;5303041;26;19937;-73
2024/05/04 14:34:22;;;;;;;;;;;;;;;;;;5302059;27;19931;-73
2024/05/04 14:36:48;;;;;;;;;;;;;;;;;;5298905;27;20563;-73
2024/05/04 14:39:17;;;;;;;;;;;;;;;;;;5303201;27;20021;-72
2024/05/04 14:41:43;;;;;;;;;;;;;;;;;;5301743;26;19930;-72
2024/05/04 14:44:11;;;;;;;;;;;;;;;;;;5301081;26;20438;-73
2024/05/04 14:46:37;;;;;;;;;;;;;;;;;;5301938;26;19938;-73
2024/05/04 14:49:06;;;;;;;;;;;;;;;;;;5300408;26;19982;-68
2024/05/04 14:51:32;;;;;;;;;;;;;;;;;;5298096;27;19950;-68
2024/05/04 14:54:01;;;;;;;;;;;;;;;;;;5300481;26;20373;-73
2024/05/04 14:56:29;;;;;;;;;;;;;;;;;;5299719;26;19931;-74
2024/05/04 14:58:58;;;;;;;;;;;;;;;;;;5303167;27;19930;-73
2024/05/04 15:01:27;;;;;;;;;;;;;;;;;;5304311;27;19946;-73
2024/05/04 15:03:56;;;;;;;;;;;;;;;;;;5303751;26;19930;-73
2024/05/04 15:06:24;;;;;;;;;;;;;;;;;;5286804;26;19938;-72
2024/05/04 15:08:53;;;;;;;;;;;;;;;;;;5300678;26;19939;-73
2024/05/04 15:11:22;;;;;;;;;;;;;;;;;;5301223;26;19937;-74
2024/05/04 15:13:54;;;;;;;;;;;;;;;;;;5299005;26;20707;-74
2024/05/04 15:16:23;;;;;;;;;;;;;;;;;;5298547;27;19986;-73
2024/05/04 15:18:51;;;;;;;;;;;;;;;;;;5302527;27;19931;-74
2024/05/04 15:21:20;;;;;;;;;;;;;;;;;;5308390;26;19930;-75
2024/05/04 15:23:49;;;;;;;;;;;;;;;;;;5301869;26;19935;-75
2024/05/04 15:26:17;;;;;;;;;;;;;;;;;;5299733;26;19949;-74
2024/05/04 15:28:46;;;;;;;;;;;;;;;;;;5301765;27;19943;-74
2024/05/04 15:31:15;;;;;;;;;;;;;;;;;;5299449;26;19931;-74
2024/05/04 15:33:43;;;;;;;;;;;;;;;;;;5300925;27;19931;-74
2024/05/04 15:36:12;;;;;;;;;;;;;;;;;;5298527;26;19930;-74
2024/05/04 15:38:41;;;;;;;;;;;;;;;;;;5303538;26;19943;-73
2024/05/04 15:41:09;;;;;;;;;;;;;;;;;;5301622;26;19931;-74
2024/05/04 15:43:38;;;;;;;;;;;;;;;;;;5301462;27;19930;-73
2024/05/04 15:46:07;;;;;;;;;;;;;;;;;;5303976;26;19938;-74
2024/05/04 15:48:35;;;;;;;;;;;;;;;;;;5305149;27;19935;-74
2024/05/04 15:51:04;;;;;;;;;;;;;;;;;;5304943;26;19931;-74
2024/05/04 15:53:33;;;;;;;;;;;;;;;;;;5305597;27;19930;-73
2024/05/04 15:56:02;;;;;;;;;;;;;;;;;;5304716;27;19931;-74
2024/05/04 15:58:30;;;;;;;;;;;;;;;;;;5303729;27;19931;-73
2024/05/04 16:00:59;;;;;;;;;;;;;;;;;;5304371;27;19931;-74
2024/05/04 16:03:28;;;;;;;;;;;;;;;;;;5304259;27;19938;-73
2024/05/04 16:05:57;;;;;;;;;;;;;;;;;;5303025;26;19930;-72
2024/05/04 16:08:27;;;;;;;;;;;;;;;;;;5303509;26;19930;-73
2024/05/04 16:10:57;;;;;;;;;;;;;;;;;;5302250;27;20369;-75
2024/05/04 16:13:25;;;;;;;;;;;;;;;;;;5303068;27;19954;-73
2024/05/04 16:15:54;;;;;;;;;;;;;;;;;;5303721;27;19930;-73
2024/05/04 16:18:23;;;;;;;;;;;;;;;;;;5290882;27;19931;-72
2024/05/04 16:20:52;;;;;;;;;;;;;;;;;;5293941;27;19942;-72
2024/05/04 16:23:20;;;;;;;;;;;;;;;;;;5303003;27;19930;-73
2024/05/04 16:25:52;;;;;;;;;;;;;;;;;;5303060;27;19931;-73
2024/05/04 16:28:21;;;;;;;;;;;;;;;;;;5288797;27;20360;-73
2024/05/04 16:30:50;;;;;;;;;;;;;;;;;;5302957;27;19963;-74
2024/05/04 16:33:19;;;;;;;;;;;;;;;;;;5299387;27;19931;-74
2024/05/04 16:35:50;;;;;;;;;;;;;;;;;;5298343;26;19934;-72
2024/05/04 16:38:18;;;;;;;;;;;;;;;;;;5301490;27;19938;-72
2024/05/04 16:40:47;;;;;;;;;;;;;;;;;;5302520;27;19931;-73
2024/05/04 16:43:16;;;;;;;;;;;;;;;;;;5301744;26;19982;-72
2024/05/04 16:45:45;;;;;;;;;;;;;;;;;;5301617;26;19937;-72
2024/05/04 16:48:13;;;;;;;;;;;;;;;;;;5301038;27;20432;-72
2024/05/04 16:50:42;;;;;;;;;;;;;;;;;;5293351;27;19931;-70
2024/05/04 16:53:11;;;;;;;;;;;;;;;;;;5298875;26;20476;-70
2024/05/04 16:55:39;;;;;;;;;;;;;;;;;;5298063;27;19930;-71